Time;durP1;ratioP1;P1;durP2;ratioP2;P2;SDS_P1;SDS_P2;PMS_P1;PMS_P2;Temp;Humidity;BMP_temperature;BMP_pressure;BME280_temperature;BME280_humidity;BME280_pressure;Samples;Min_cycle;Max_cycle;Signal;HPM_P1;HPM_P2
2023/01/23 00:00:27;;;;;;;;;;;;;;;;;;4997383;28;19937;-84
2023/01/23 00:02:52;;;;;;;;;;;;;;;;;;5016209;28;19909;-84
2023/01/23 00:05:18;;;;;;;;;;;;;;;;;;4998331;28;19914;-84
2023/01/23 00:07:44;;;;;;;;;;;;;;;;;;5004174;28;19921;-84
2023/01/23 00:10:10;;;;;;;;;;;;;;;;;;4998835;28;19918;-84
2023/01/23 00:12:36;;;;;;;;;;;;;;;;;;5004947;28;20017;-85
2023/01/23 00:15:02;;;;;;;;;;;;;;;;;;4982706;28;19914;-84
2023/01/23 00:17:30;;;;;;;;;;;;;;;;;;4995470;28;19914;-83
2023/01/23 00:19:58;;;;;;;;;;;;;;;;;;4987913;28;20281;-84
2023/01/23 00:22:24;;;;;;;;;;;;;;;;;;4999746;28;20587;-84
2023/01/23 00:24:50;;;;;;;;;;;;;;;;;;4998602;28;19921;-84
2023/01/23 00:27:16;;;;;;;;;;;;;;;;;;5015565;28;19941;-84
2023/01/23 00:29:42;;;;;;;;;;;;;;;;;;4987452;28;19993;-84
2023/01/23 00:32:08;;;;;;;;;;;;;;;;;;4995672;28;20407;-84
2023/01/23 00:34:33;;;;;;;;;;;;;;;;;;5001004;28;19917;-83
2023/01/23 00:37:02;;;;;;;;;;;;;;;;;;4981384;28;19918;-84
2023/01/23 00:39:28;;;;;;;;;;;;;;;;;;4997020;28;19922;-84
2023/01/23 00:41:54;;;;;;;;;;;;;;;;;;4996914;28;19929;-83
2023/01/23 00:44:19;;;;;;;;;;;;;;;;;;4996852;28;20331;-84
2023/01/23 00:46:45;;;;;;;;;;;;;;;;;;4996840;28;19913;-84
2023/01/23 00:49:16;;;;;;;;;;;;;;;;;;4998714;28;20013;-83
2023/01/23 00:51:42;;;;;;;;;;;;;;;;;;4989853;28;20013;-84
2023/01/23 00:54:08;;;;;;;;;;;;;;;;;;4983342;28;19965;-83
2023/01/23 00:56:34;;;;;;;;;;;;;;;;;;4998569;28;19940;-84
2023/01/23 00:59:00;;;;;;;;;;;;;;;;;;4996354;28;20285;-83
2023/01/23 01:01:27;;;;;;;;;;;;;;;;;;4997100;28;19933;-84
2023/01/23 01:03:53;;;;;;;;;;;;;;;;;;4997241;28;19901;-84
2023/01/23 01:06:19;;;;;;;;;;;;;;;;;;5002080;28;20480;-84
2023/01/23 01:08:45;;;;;;;;;;;;;;;;;;4996481;28;19963;-84
2023/01/23 01:11:11;;;;;;;;;;;;;;;;;;5009459;28;19918;-84
2023/01/23 01:13:37;;;;;;;;;;;;;;;;;;5019253;28;20338;-83
2023/01/23 01:16:03;;;;;;;;;;;;;;;;;;4990913;28;19921;-84
2023/01/23 01:18:29;;;;;;;;;;;;;;;;;;4996526;28;19910;-84
2023/01/23 01:20:55;;;;;;;;;;;;;;;;;;4995725;28;20057;-83
2023/01/23 01:23:20;;;;;;;;;;;;;;;;;;4979767;28;20004;-83
2023/01/23 01:25:46;;;;;;;;;;;;;;;;;;4980119;28;19918;-83
2023/01/23 01:28:12;;;;;;;;;;;;;;;;;;4980917;28;20013;-84
2023/01/23 01:30:39;;;;;;;;;;;;;;;;;;4980949;28;19924;-84
2023/01/23 01:33:05;;;;;;;;;;;;;;;;;;4996579;28;19914;-83
2023/01/23 01:35:31;;;;;;;;;;;;;;;;;;4998833;28;19916;-84
2023/01/23 01:37:57;;;;;;;;;;;;;;;;;;4996325;28;19914;-83
2023/01/23 01:40:23;;;;;;;;;;;;;;;;;;4986794;28;19917;-83
2023/01/23 01:42:49;;;;;;;;;;;;;;;;;;5010288;28;19949;-84
2023/01/23 01:45:14;;;;;;;;;;;;;;;;;;4982160;28;19964;-84
2023/01/23 01:47:40;;;;;;;;;;;;;;;;;;4990129;28;20364;-84
2023/01/23 01:50:09;;;;;;;;;;;;;;;;;;5004236;28;19969;-83
2023/01/23 01:52:35;;;;;;;;;;;;;;;;;;4997749;28;19914;-84
2023/01/23 01:55:00;;;;;;;;;;;;;;;;;;4984830;28;19980;-84
2023/01/23 01:57:29;;;;;;;;;;;;;;;;;;4998877;28;20357;-83
2023/01/23 01:59:55;;;;;;;;;;;;;;;;;;4999251;28;19914;-84
2023/01/23 02:02:21;;;;;;;;;;;;;;;;;;5015214;28;19921;-84
2023/01/23 02:04:49;;;;;;;;;;;;;;;;;;5018401;28;20019;-84
2023/01/23 02:07:15;;;;;;;;;;;;;;;;;;4982554;28;19914;-84
2023/01/23 02:09:41;;;;;;;;;;;;;;;;;;4998940;28;19924;-84
2023/01/23 02:12:07;;;;;;;;;;;;;;;;;;4981947;28;20386;-84
2023/01/23 02:14:33;;;;;;;;;;;;;;;;;;4996063;28;20010;-83
2023/01/23 02:17:01;;;;;;;;;;;;;;;;;;4980442;28;21217;-84
2023/01/23 02:19:27;;;;;;;;;;;;;;;;;;4997462;28;19924;-84
2023/01/23 02:21:53;;;;;;;;;;;;;;;;;;4997571;28;19914;-84
2023/01/23 02:24:19;;;;;;;;;;;;;;;;;;5017095;28;19914;-84
2023/01/23 02:26:45;;;;;;;;;;;;;;;;;;5000312;28;20304;-84
2023/01/23 02:29:11;;;;;;;;;;;;;;;;;;4990760;28;19965;-84
2023/01/23 02:31:44;;;;;;;;;;;;;;;;;;4995150;28;19914;-84
2023/01/23 02:34:10;;;;;;;;;;;;;;;;;;4998303;28;19901;-84
2023/01/23 02:36:36;;;;;;;;;;;;;;;;;;5000229;28;19916;-84
2023/01/23 02:39:02;;;;;;;;;;;;;;;;;;4997261;28;19941;-84
2023/01/23 02:41:28;;;;;;;;;;;;;;;;;;4997426;28;19944;-83
2023/01/23 02:43:54;;;;;;;;;;;;;;;;;;4994697;28;20372;-83
2023/01/23 02:46:20;;;;;;;;;;;;;;;;;;4978666;28;19930;-86
2023/01/23 02:48:47;;;;;;;;;;;;;;;;;;4981289;28;19917;-84
2023/01/23 02:51:13;;;;;;;;;;;;;;;;;;4980719;28;19960;-84
2023/01/23 02:53:41;;;;;;;;;;;;;;;;;;4994634;28;19914;-85
2023/01/23 02:56:07;;;;;;;;;;;;;;;;;;4996854;28;19922;-84
2023/01/23 03:01:18;;;;;;;;;;;;;;;;;;5001302;28;19925;-84
2023/01/23 03:03:43;;;;;;;;;;;;;;;;;;4996896;28;19918;-84
2023/01/23 03:06:09;;;;;;;;;;;;;;;;;;5003825;28;19916;-85
2023/01/23 03:08:46;;;;;;;;;;;;;;;;;;5003928;28;19910;-83
2023/01/23 03:11:11;;;;;;;;;;;;;;;;;;4992484;28;19924;-85
2023/01/23 03:13:37;;;;;;;;;;;;;;;;;;5003249;28;20009;-85
2023/01/23 03:16:06;;;;;;;;;;;;;;;;;;5001237;28;19918;-87
2023/01/23 03:18:32;;;;;;;;;;;;;;;;;;4984786;28;20308;-85
2023/01/23 03:20:58;;;;;;;;;;;;;;;;;;4992737;28;20019;-84
2023/01/23 03:23:24;;;;;;;;;;;;;;;;;;4995350;28;19977;-87
2023/01/23 03:25:57;;;;;;;;;;;;;;;;;;5000673;28;19953;-86
2023/01/23 03:31:07;;;;;;;;;;;;;;;;;;5007738;28;20252;-87
2023/01/23 03:33:33;;;;;;;;;;;;;;;;;;4991718;28;19917;-86
2023/01/23 03:36:02;;;;;;;;;;;;;;;;;;5001166;28;19921;-87
2023/01/23 03:38:28;;;;;;;;;;;;;;;;;;5000299;28;19921;-85
2023/01/23 03:43:38;;;;;;;;;;;;;;;;;;4993203;28;19975;-87
2023/01/23 03:46:04;;;;;;;;;;;;;;;;;;5013198;28;19917;-86
2023/01/23 03:48:32;;;;;;;;;;;;;;;;;;4992183;28;20296;-87
2023/01/23 03:51:06;;;;;;;;;;;;;;;;;;4999203;28;20008;-87
2023/01/23 03:53:32;;;;;;;;;;;;;;;;;;5005512;28;19913;-87
2023/01/23 03:55:58;;;;;;;;;;;;;;;;;;4992350;28;19921;-84
2023/01/23 03:58:24;;;;;;;;;;;;;;;;;;4991945;28;19942;-84
2023/01/23 04:00:49;;;;;;;;;;;;;;;;;;5008763;28;19918;-85
2023/01/23 04:03:15;;;;;;;;;;;;;;;;;;4993654;28;20009;-84
2023/01/23 04:05:41;;;;;;;;;;;;;;;;;;4998081;28;19914;-84
2023/01/23 04:08:07;;;;;;;;;;;;;;;;;;5010503;28;19914;-85
2023/01/23 04:10:33;;;;;;;;;;;;;;;;;;4995604;28;19999;-85
2023/01/23 04:12:59;;;;;;;;;;;;;;;;;;4979366;28;19918;-85
2023/01/23 04:15:27;;;;;;;;;;;;;;;;;;4987158;28;19960;-85
2023/01/23 04:17:53;;;;;;;;;;;;;;;;;;4971082;28;19910;-86
2023/01/23 04:20:19;;;;;;;;;;;;;;;;;;4972028;28;19906;-85
2023/01/23 04:22:47;;;;;;;;;;;;;;;;;;4973814;28;19981;-85
2023/01/23 04:25:13;;;;;;;;;;;;;;;;;;4986604;28;19910;-85
2023/01/23 04:27:39;;;;;;;;;;;;;;;;;;4951069;29;19941;-85
2023/01/23 04:30:05;;;;;;;;;;;;;;;;;;4982633;28;19973;-85
2023/01/23 04:32:31;;;;;;;;;;;;;;;;;;4985195;28;19992;-85
2023/01/23 04:34:57;;;;;;;;;;;;;;;;;;4975583;28;19977;-85
2023/01/23 04:37:25;;;;;;;;;;;;;;;;;;4999933;28;19910;-85
2023/01/23 04:39:51;;;;;;;;;;;;;;;;;;4987973;28;19918;-85
2023/01/23 04:42:20;;;;;;;;;;;;;;;;;;4975592;28;19998;-85
2023/01/23 04:44:45;;;;;;;;;;;;;;;;;;4964791;28;20280;-85
2023/01/23 04:47:11;;;;;;;;;;;;;;;;;;4972464;28;19914;-85
2023/01/23 04:49:37;;;;;;;;;;;;;;;;;;4980481;28;19914;-85
2023/01/23 04:52:03;;;;;;;;;;;;;;;;;;4981527;28;20004;-85
2023/01/23 04:54:29;;;;;;;;;;;;;;;;;;4982636;28;19910;-84
2023/01/23 04:56:57;;;;;;;;;;;;;;;;;;4978509;28;19936;-86
2023/01/23 04:59:23;;;;;;;;;;;;;;;;;;4962295;29;19915;-85
2023/01/23 05:01:49;;;;;;;;;;;;;;;;;;4977568;28;20027;-84
2023/01/23 05:04:15;;;;;;;;;;;;;;;;;;4979698;28;19967;-86
2023/01/23 05:06:43;;;;;;;;;;;;;;;;;;4965171;28;19985;-85
2023/01/23 05:09:12;;;;;;;;;;;;;;;;;;4977236;28;19917;-85
2023/01/23 05:11:38;;;;;;;;;;;;;;;;;;5013827;28;19914;-85
2023/01/23 05:14:04;;;;;;;;;;;;;;;;;;5010313;28;19982;-85
2023/01/23 05:16:29;;;;;;;;;;;;;;;;;;4999879;28;19980;-85
2023/01/23 05:18:55;;;;;;;;;;;;;;;;;;5129380;23;19926;-86
2023/01/23 05:21:21;;;;;;;;;;;;;;;;;;5080165;28;19920;-85
2023/01/23 05:23:47;;;;;;;;;;;;;;;;;;5063889;28;20378;-85
2023/01/23 05:26:13;;;;;;;;;;;;;;;;;;5053021;28;19909;-86
2023/01/23 05:28:39;;;;;;;;;;;;;;;;;;5045561;28;19993;-86
2023/01/23 05:31:05;;;;;;;;;;;;;;;;;;5042230;28;19909;-86
2023/01/23 05:33:31;;;;;;;;;;;;;;;;;;5060561;28;19940;-85
2023/01/23 05:35:57;;;;;;;;;;;;;;;;;;5047732;28;19912;-85
2023/01/23 05:38:22;;;;;;;;;;;;;;;;;;5061720;28;19909;-86
2023/01/23 05:40:51;;;;;;;;;;;;;;;;;;5060470;28;19916;-84
2023/01/23 05:43:17;;;;;;;;;;;;;;;;;;5061957;28;20350;-85
2023/01/23 05:45:45;;;;;;;;;;;;;;;;;;5057401;28;19919;-85
2023/01/23 05:48:13;;;;;;;;;;;;;;;;;;5059745;28;20426;-86
2023/01/23 05:50:39;;;;;;;;;;;;;;;;;;5077034;28;19917;-88
2023/01/23 05:53:06;;;;;;;;;;;;;;;;;;5054962;28;19967;-86
2023/01/23 05:55:34;;;;;;;;;;;;;;;;;;5073336;28;20338;-86
2023/01/23 05:58:02;;;;;;;;;;;;;;;;;;5049368;28;19999;-86
2023/01/23 06:00:28;;;;;;;;;;;;;;;;;;5061504;28;19916;-87
2023/01/23 06:02:54;;;;;;;;;;;;;;;;;;5053247;28;19923;-87
2023/01/23 06:05:20;;;;;;;;;;;;;;;;;;5044781;28;19931;-86
2023/01/23 06:07:46;;;;;;;;;;;;;;;;;;5057803;28;19908;-87
2023/01/23 06:10:14;;;;;;;;;;;;;;;;;;5082834;28;19908;-87
2023/01/23 06:12:40;;;;;;;;;;;;;;;;;;5066296;28;19936;-87
2023/01/23 06:15:06;;;;;;;;;;;;;;;;;;5062988;28;19927;-86
2023/01/23 06:17:32;;;;;;;;;;;;;;;;;;5069076;28;19931;-87
2023/01/23 06:19:58;;;;;;;;;;;;;;;;;;5094809;28;20363;-87
2023/01/23 06:22:24;;;;;;;;;;;;;;;;;;5070505;28;19955;-87
2023/01/23 06:24:51;;;;;;;;;;;;;;;;;;5046247;28;19919;-87
2023/01/23 06:27:17;;;;;;;;;;;;;;;;;;5054937;28;19924;-87
2023/01/23 06:29:43;;;;;;;;;;;;;;;;;;5054922;28;19913;-86
2023/01/23 06:32:09;;;;;;;;;;;;;;;;;;5056218;28;20290;-86
2023/01/23 06:34:35;;;;;;;;;;;;;;;;;;5076346;28;19913;-86
2023/01/23 06:37:01;;;;;;;;;;;;;;;;;;5052277;28;19912;-87
2023/01/23 06:39:29;;;;;;;;;;;;;;;;;;5074575;28;19923;-86
2023/01/23 06:41:54;;;;;;;;;;;;;;;;;;5058387;28;19913;-87
2023/01/23 06:44:20;;;;;;;;;;;;;;;;;;5073101;28;19916;-87
2023/01/23 06:46:46;;;;;;;;;;;;;;;;;;5084232;28;19908;-87
2023/01/23 06:49:12;;;;;;;;;;;;;;;;;;5070160;28;19904;-86
2023/01/23 06:51:38;;;;;;;;;;;;;;;;;;5066598;28;19912;-87
2023/01/23 06:54:04;;;;;;;;;;;;;;;;;;5049873;28;20309;-87
2023/01/23 06:56:30;;;;;;;;;;;;;;;;;;5068628;28;19914;-87
2023/01/23 06:58:56;;;;;;;;;;;;;;;;;;5067195;28;19995;-86
2023/01/23 07:01:22;;;;;;;;;;;;;;;;;;5083160;28;19916;-87
2023/01/23 07:03:48;;;;;;;;;;;;;;;;;;5065811;28;19916;-86
2023/01/23 07:06:16;;;;;;;;;;;;;;;;;;5064561;28;19900;-87
2023/01/23 07:08:42;;;;;;;;;;;;;;;;;;5076627;28;19912;-86
2023/01/23 07:11:08;;;;;;;;;;;;;;;;;;5068571;28;19913;-86
2023/01/23 07:13:34;;;;;;;;;;;;;;;;;;5054278;28;19913;-87
2023/01/23 07:16:00;;;;;;;;;;;;;;;;;;5062245;28;19919;-87
2023/01/23 07:18:32;;;;;;;;;;;;;;;;;;5054901;28;19920;-86
2023/01/23 07:20:57;;;;;;;;;;;;;;;;;;5084390;28;19924;-87
2023/01/23 07:23:23;;;;;;;;;;;;;;;;;;5064931;28;19984;-87
2023/01/23 07:25:52;;;;;;;;;;;;;;;;;;5047228;28;19963;-87
2023/01/23 07:28:18;;;;;;;;;;;;;;;;;;5052730;28;19909;-87
2023/01/23 07:30:44;;;;;;;;;;;;;;;;;;5064689;28;19939;-86
2023/01/23 07:33:12;;;;;;;;;;;;;;;;;;5052246;28;19913;-87
2023/01/23 07:35:38;;;;;;;;;;;;;;;;;;5053155;28;19920;-87
2023/01/23 07:38:04;;;;;;;;;;;;;;;;;;5052375;28;19920;-87
2023/01/23 07:40:30;;;;;;;;;;;;;;;;;;5068007;28;19927;-87
2023/01/23 07:42:56;;;;;;;;;;;;;;;;;;5076454;28;19909;-86
2023/01/23 07:45:22;;;;;;;;;;;;;;;;;;5074480;28;21232;-86
2023/01/23 07:47:50;;;;;;;;;;;;;;;;;;5057486;28;20043;-86
2023/01/23 07:50:16;;;;;;;;;;;;;;;;;;5057509;28;19951;-87
2023/01/23 07:52:42;;;;;;;;;;;;;;;;;;5059099;28;19921;-87
2023/01/23 07:55:16;;;;;;;;;;;;;;;;;;5068003;28;19983;-86
2023/01/23 07:57:41;;;;;;;;;;;;;;;;;;5057470;28;19947;-86
2023/01/23 08:00:07;;;;;;;;;;;;;;;;;;5065527;28;19988;-86
2023/01/23 08:02:33;;;;;;;;;;;;;;;;;;5067117;28;19920;-86
2023/01/23 08:05:00;;;;;;;;;;;;;;;;;;5079469;28;19931;-86
2023/01/23 08:07:27;;;;;;;;;;;;;;;;;;5060174;28;19912;-86
2023/01/23 08:09:53;;;;;;;;;;;;;;;;;;5067688;28;19923;-86
2023/01/23 08:12:19;;;;;;;;;;;;;;;;;;5081012;28;19918;-85
2023/01/23 08:14:45;;;;;;;;;;;;;;;;;;5069275;28;19909;-86
2023/01/23 08:17:10;;;;;;;;;;;;;;;;;;5051469;28;19913;-87
2023/01/23 08:19:36;;;;;;;;;;;;;;;;;;5048288;28;19920;-86
2023/01/23 08:22:02;;;;;;;;;;;;;;;;;;5046512;28;19919;-87
2023/01/23 08:24:28;;;;;;;;;;;;;;;;;;5070034;28;19916;-86
2023/01/23 08:27:02;;;;;;;;;;;;;;;;;;5069530;28;19913;-87
2023/01/23 08:29:30;;;;;;;;;;;;;;;;;;5070002;28;19915;-86
2023/01/23 08:31:58;;;;;;;;;;;;;;;;;;5070235;28;20256;-86
2023/01/23 08:34:24;;;;;;;;;;;;;;;;;;5065097;28;19913;-86
2023/01/23 08:36:50;;;;;;;;;;;;;;;;;;5050012;28;19916;-87
2023/01/23 08:39:16;;;;;;;;;;;;;;;;;;5050959;28;19908;-87
2023/01/23 08:41:42;;;;;;;;;;;;;;;;;;5048325;28;19923;-85
2023/01/23 08:44:08;;;;;;;;;;;;;;;;;;5049726;28;19929;-86
2023/01/23 08:46:34;;;;;;;;;;;;;;;;;;5049992;28;19909;-85
2023/01/23 08:49:00;;;;;;;;;;;;;;;;;;5048196;28;19909;-87
2023/01/23 08:51:26;;;;;;;;;;;;;;;;;;5050614;28;19980;-86
2023/01/23 08:53:57;;;;;;;;;;;;;;;;;;5047387;28;19913;-86
2023/01/23 08:56:22;;;;;;;;;;;;;;;;;;5067985;28;19919;-86
2023/01/23 08:58:49;;;;;;;;;;;;;;;;;;5050144;28;19909;-86
2023/01/23 09:01:15;;;;;;;;;;;;;;;;;;5051437;28;20392;-87
2023/01/23 09:03:41;;;;;;;;;;;;;;;;;;5060761;28;19966;-86
2023/01/23 09:06:07;;;;;;;;;;;;;;;;;;5076468;28;19991;-87
2023/01/23 09:08:33;;;;;;;;;;;;;;;;;;5076309;28;20026;-87
2023/01/23 09:10:59;;;;;;;;;;;;;;;;;;5074993;28;20266;-87
2023/01/23 09:13:25;;;;;;;;;;;;;;;;;;5073870;28;19938;-86
2023/01/23 09:15:51;;;;;;;;;;;;;;;;;;5076260;28;19908;-86
2023/01/23 09:18:17;;;;;;;;;;;;;;;;;;5076858;28;19980;-86
2023/01/23 09:20:43;;;;;;;;;;;;;;;;;;5074757;28;19924;-86
2023/01/23 09:23:11;;;;;;;;;;;;;;;;;;5074589;28;19934;-86
2023/01/23 09:25:37;;;;;;;;;;;;;;;;;;5062650;28;19916;-87
2023/01/23 09:28:05;;;;;;;;;;;;;;;;;;5075632;28;19900;-86
2023/01/23 09:30:31;;;;;;;;;;;;;;;;;;5076048;28;19912;-86
2023/01/23 09:32:57;;;;;;;;;;;;;;;;;;5092996;28;19950;-87
2023/01/23 09:35:26;;;;;;;;;;;;;;;;;;5090892;28;19923;-86
2023/01/23 09:38:03;;;;;;;;;;;;;;;;;;5073731;28;19916;-86
2023/01/23 09:40:29;;;;;;;;;;;;;;;;;;5074584;28;19916;-87
2023/01/23 09:42:55;;;;;;;;;;;;;;;;;;5090409;28;19927;-86
2023/01/23 09:45:23;;;;;;;;;;;;;;;;;;5072103;28;20361;-86
2023/01/23 09:47:49;;;;;;;;;;;;;;;;;;5089300;28;19908;-85
2023/01/23 09:50:15;;;;;;;;;;;;;;;;;;5074129;28;19919;-86
2023/01/23 09:52:41;;;;;;;;;;;;;;;;;;5072626;28;19940;-88
2023/01/23 09:55:07;;;;;;;;;;;;;;;;;;5070127;28;19916;-87
2023/01/23 09:57:33;;;;;;;;;;;;;;;;;;5063069;28;19915;-87
2023/01/23 09:59:59;;;;;;;;;;;;;;;;;;5050015;28;19950;-89
2023/01/23 10:02:27;;;;;;;;;;;;;;;;;;5067900;28;19962;-87
2023/01/23 10:05:00;;;;;;;;;;;;;;;;;;5067655;28;19909;-88
2023/01/23 10:07:26;;;;;;;;;;;;;;;;;;5047553;28;19913;-85
2023/01/23 10:09:54;;;;;;;;;;;;;;;;;;5065548;28;20318;-86
2023/01/23 10:12:28;;;;;;;;;;;;;;;;;;5048447;28;19909;-88
2023/01/23 10:14:53;;;;;;;;;;;;;;;;;;5055515;28;19913;-88
2023/01/23 10:17:19;;;;;;;;;;;;;;;;;;5069486;28;19935;-86
2023/01/23 10:20:29;;;;;;;;;;;;;;;;;;5050979;28;19921;-88
2023/01/23 10:22:35;;;;;;;;;;;;;;;;;;5074199;28;19915;-87
2023/01/23 10:25:01;;;;;;;;;;;;;;;;;;5056514;28;19913;-87
2023/01/23 10:27:26;;;;;;;;;;;;;;;;;;5070070;28;19909;-87
2023/01/23 10:29:53;;;;;;;;;;;;;;;;;;5056386;28;19919;-88
2023/01/23 10:32:19;;;;;;;;;;;;;;;;;;5064170;28;19959;-86
2023/01/23 10:34:45;;;;;;;;;;;;;;;;;;5061686;28;19966;-86
2023/01/23 10:37:13;;;;;;;;;;;;;;;;;;5055104;28;20003;-86
2023/01/23 10:39:39;;;;;;;;;;;;;;;;;;5059113;28;19916;-86
2023/01/23 10:42:05;;;;;;;;;;;;;;;;;;5060327;28;19915;-86
2023/01/23 10:44:31;;;;;;;;;;;;;;;;;;5072597;28;20394;-86
2023/01/23 10:46:57;;;;;;;;;;;;;;;;;;5065285;28;19913;-87
2023/01/23 10:49:25;;;;;;;;;;;;;;;;;;5068658;28;19905;-85
2023/01/23 10:51:51;;;;;;;;;;;;;;;;;;5082572;28;19908;-85
2023/01/23 10:54:17;;;;;;;;;;;;;;;;;;5106787;28;19923;-85
2023/01/23 10:56:43;;;;;;;;;;;;;;;;;;5073864;28;19912;-85
2023/01/23 10:59:09;;;;;;;;;;;;;;;;;;5074229;28;19920;-86
2023/01/23 11:01:35;;;;;;;;;;;;;;;;;;5070019;28;19908;-86
2023/01/23 11:04:01;;;;;;;;;;;;;;;;;;5047941;28;19958;-86
2023/01/23 11:06:27;;;;;;;;;;;;;;;;;;5048458;28;19913;-86
2023/01/23 11:08:53;;;;;;;;;;;;;;;;;;5043717;28;19916;-85
2023/01/23 11:11:26;;;;;;;;;;;;;;;;;;5060277;28;19909;-85
2023/01/23 11:13:52;;;;;;;;;;;;;;;;;;5042614;28;19932;-85
2023/01/23 11:16:18;;;;;;;;;;;;;;;;;;5052716;28;19920;-85
2023/01/23 11:18:44;;;;;;;;;;;;;;;;;;5040594;28;20363;-86
2023/01/23 11:21:10;;;;;;;;;;;;;;;;;;5052674;28;20036;-86
2023/01/23 11:23:35;;;;;;;;;;;;;;;;;;5064139;28;19921;-86
2023/01/23 11:26:02;;;;;;;;;;;;;;;;;;5052926;28;19996;-87
2023/01/23 11:28:29;;;;;;;;;;;;;;;;;;5054172;28;19962;-86
2023/01/23 11:30:58;;;;;;;;;;;;;;;;;;5058269;28;20294;-86
2023/01/23 11:33:24;;;;;;;;;;;;;;;;;;5063313;28;20305;-86
2023/01/23 11:35:50;;;;;;;;;;;;;;;;;;5064756;28;19908;-86
2023/01/23 11:38:16;;;;;;;;;;;;;;;;;;5053700;28;19912;-86
2023/01/23 11:40:42;;;;;;;;;;;;;;;;;;5051202;28;19923;-86
2023/01/23 11:43:08;;;;;;;;;;;;;;;;;;5079015;28;19932;-86
2023/01/23 11:45:34;;;;;;;;;;;;;;;;;;5061946;28;19908;-86
2023/01/23 11:48:00;;;;;;;;;;;;;;;;;;5050776;28;19984;-86
2023/01/23 11:50:26;;;;;;;;;;;;;;;;;;5041781;28;20370;-86
2023/01/23 11:52:52;;;;;;;;;;;;;;;;;;5054228;28;19923;-86
2023/01/23 11:55:18;;;;;;;;;;;;;;;;;;5061668;28;19908;-86
2023/01/23 11:57:44;;;;;;;;;;;;;;;;;;5060842;28;20397;-86
2023/01/23 12:00:10;;;;;;;;;;;;;;;;;;5064192;28;20345;-85
2023/01/23 12:02:36;;;;;;;;;;;;;;;;;;5042956;28;19913;-86
2023/01/23 12:05:04;;;;;;;;;;;;;;;;;;5042561;28;19913;-86
2023/01/23 12:07:30;;;;;;;;;;;;;;;;;;5061199;28;19912;-86
2023/01/23 12:09:56;;;;;;;;;;;;;;;;;;5062500;28;20384;-86
2023/01/23 12:12:22;;;;;;;;;;;;;;;;;;5063953;28;19920;-85
2023/01/23 12:14:48;;;;;;;;;;;;;;;;;;5065094;28;19913;-86
2023/01/23 12:17:14;;;;;;;;;;;;;;;;;;5045057;28;19915;-85
2023/01/23 12:19:39;;;;;;;;;;;;;;;;;;5044837;28;19956;-85
2023/01/23 12:22:05;;;;;;;;;;;;;;;;;;5058181;28;19993;-86
2023/01/23 12:24:31;;;;;;;;;;;;;;;;;;5060060;28;20296;-85
2023/01/23 12:26:57;;;;;;;;;;;;;;;;;;5076050;28;19908;-85
2023/01/23 12:29:23;;;;;;;;;;;;;;;;;;5083772;28;19904;-85
2023/01/23 12:31:49;;;;;;;;;;;;;;;;;;5064195;28;19934;-86
2023/01/23 12:34:15;;;;;;;;;;;;;;;;;;5059206;28;19961;-85
2023/01/23 12:36:41;;;;;;;;;;;;;;;;;;5059592;28;19957;-86
2023/01/23 12:39:07;;;;;;;;;;;;;;;;;;5041787;28;19909;-85
2023/01/23 12:41:36;;;;;;;;;;;;;;;;;;5062195;28;20000;-85
2023/01/23 12:44:02;;;;;;;;;;;;;;;;;;5062259;28;19912;-85
2023/01/23 12:46:28;;;;;;;;;;;;;;;;;;5060825;28;19908;-85
2023/01/23 12:48:54;;;;;;;;;;;;;;;;;;5060643;28;20285;-85
2023/01/23 12:51:20;;;;;;;;;;;;;;;;;;5044428;28;19917;-85
2023/01/23 12:53:46;;;;;;;;;;;;;;;;;;5040632;28;19916;-85
2023/01/23 12:56:12;;;;;;;;;;;;;;;;;;5042440;28;19917;-85
2023/01/23 12:58:38;;;;;;;;;;;;;;;;;;5072097;28;19908;-85
2023/01/23 13:01:06;;;;;;;;;;;;;;;;;;5068941;28;19916;-84
2023/01/23 13:03:42;;;;;;;;;;;;;;;;;;;;;
2023/01/23 13:06:08;;;;;;;;;;;;;;;;;;5065961;28;19912;-85
2023/01/23 13:08:34;;;;;;;;;;;;;;;;;;5051568;28;20405;-86
2023/01/23 13:13:45;;;;;;;;;;;;;;;;;;5076703;28;19919;-86
2023/01/23 13:16:11;;;;;;;;;;;;;;;;;;5077057;28;19908;-84
2023/01/23 13:25:08;;;;;;;;;;;;;;;;;;5076323;28;19931;-84
2023/01/23 13:26:52;;;;;;;;;;;;;;;;;;5079197;28;19919;-83
2023/01/23 13:29:18;;;;;;;;;;;;;;;;;;5062724;28;19908;-84
2023/01/23 13:31:45;;;;;;;;;;;;;;;;;;5066799;28;19912;-85
2023/01/23 13:34:11;;;;;;;;;;;;;;;;;;5060670;28;19992;-87
2023/01/23 13:36:37;;;;;;;;;;;;;;;;;;5060917;28;19908;-85
2023/01/23 13:39:03;;;;;;;;;;;;;;;;;;5066607;28;19967;-85
2023/01/23 13:41:28;;;;;;;;;;;;;;;;;;5044043;28;19913;-84
2023/01/23 13:43:57;;;;;;;;;;;;;;;;;;5041829;28;19931;-84
2023/01/23 13:46:23;;;;;;;;;;;;;;;;;;5041801;28;19932;-86
2023/01/23 13:51:33;;;;;;;;;;;;;;;;;;5080312;28;19920;-86
2023/01/23 13:56:48;;;;;;;;;;;;;;;;;;5078175;28;19919;-86
2023/01/23 13:59:14;;;;;;;;;;;;;;;;;;5054658;28;19952;-85
2023/01/23 14:07:12;;;;;;;;;;;;;;;;;;5074552;28;20406;-84
2023/01/23 14:09:38;;;;;;;;;;;;;;;;;;5061738;28;20015;-85
2023/01/23 14:12:04;;;;;;;;;;;;;;;;;;5062091;28;19936;-84
2023/01/23 14:17:15;;;;;;;;;;;;;;;;;;5068272;28;19962;-85
2023/01/23 14:19:41;;;;;;;;;;;;;;;;;;5072729;28;19924;-85
2023/01/23 14:22:07;;;;;;;;;;;;;;;;;;5061987;28;19920;-84
2023/01/23 14:24:33;;;;;;;;;;;;;;;;;;5050303;28;19909;-85
2023/01/23 14:26:59;;;;;;;;;;;;;;;;;;5054340;28;19978;-84
2023/01/23 14:29:25;;;;;;;;;;;;;;;;;;5049280;28;19909;-85
2023/01/23 14:31:53;;;;;;;;;;;;;;;;;;5054321;28;19983;-85
2023/01/23 14:34:19;;;;;;;;;;;;;;;;;;5059672;28;20232;-85
2023/01/23 14:36:47;;;;;;;;;;;;;;;;;;5049469;28;19943;-84
2023/01/23 14:39:13;;;;;;;;;;;;;;;;;;5041180;28;19972;-82
2023/01/23 14:41:39;;;;;;;;;;;;;;;;;;5041568;28;20349;-85
2023/01/23 14:44:05;;;;;;;;;;;;;;;;;;5058191;28;19995;-85
2023/01/23 14:46:31;;;;;;;;;;;;;;;;;;5060878;28;19913;-86
2023/01/23 14:48:57;;;;;;;;;;;;;;;;;;5060070;28;19908;-85
2023/01/23 14:51:23;;;;;;;;;;;;;;;;;;5062602;28;20022;-85
2023/01/23 14:53:51;;;;;;;;;;;;;;;;;;5065208;28;19909;-84
2023/01/23 14:56:17;;;;;;;;;;;;;;;;;;5065654;28;19912;-85
2023/01/23 14:58:46;;;;;;;;;;;;;;;;;;5063648;28;20420;-85
2023/01/23 15:01:11;;;;;;;;;;;;;;;;;;5051904;28;19917;-85
2023/01/23 15:03:37;;;;;;;;;;;;;;;;;;5062081;28;19915;-85
2023/01/23 15:06:03;;;;;;;;;;;;;;;;;;5064607;28;19921;-85
2023/01/23 15:08:31;;;;;;;;;;;;;;;;;;5051738;28;19909;-85
2023/01/23 15:10:56;;;;;;;;;;;;;;;;;;5048763;28;19913;-85
2023/01/23 15:13:22;;;;;;;;;;;;;;;;;;5049524;28;19962;-85
2023/01/23 15:15:50;;;;;;;;;;;;;;;;;;5071106;28;19931;-85
2023/01/23 15:18:16;;;;;;;;;;;;;;;;;;5083783;28;19920;-86
2023/01/23 15:20:42;;;;;;;;;;;;;;;;;;5058503;28;19940;-85
2023/01/23 15:23:08;;;;;;;;;;;;;;;;;;5062996;28;19913;-85
2023/01/23 15:25:36;;;;;;;;;;;;;;;;;;5069670;28;20287;-84
2023/01/23 15:28:05;;;;;;;;;;;;;;;;;;5056766;28;19916;-85
2023/01/23 15:30:31;;;;;;;;;;;;;;;;;;5069968;28;19916;-83
2023/01/23 15:32:56;;;;;;;;;;;;;;;;;;5086831;28;20359;-83
2023/01/23 15:35:22;;;;;;;;;;;;;;;;;;5081232;28;19921;-84
2023/01/23 15:37:48;;;;;;;;;;;;;;;;;;5059070;28;19942;-85
2023/01/23 15:40:14;;;;;;;;;;;;;;;;;;5073218;28;20029;-85
2023/01/23 15:42:40;;;;;;;;;;;;;;;;;;5065133;28;19913;-85
2023/01/23 15:45:06;;;;;;;;;;;;;;;;;;5065443;28;20854;-85
2023/01/23 15:47:32;;;;;;;;;;;;;;;;;;5063514;28;19918;-83
2023/01/23 15:50:01;;;;;;;;;;;;;;;;;;5064525;28;19913;-84
2023/01/23 15:52:30;;;;;;;;;;;;;;;;;;5046732;28;19995;-85
2023/01/23 15:54:56;;;;;;;;;;;;;;;;;;5044312;28;19913;-84
2023/01/23 15:57:21;;;;;;;;;;;;;;;;;;5045788;28;19912;-84
2023/01/23 15:59:47;;;;;;;;;;;;;;;;;;5075453;28;19916;-84
2023/01/23 16:02:16;;;;;;;;;;;;;;;;;;5076914;28;19912;-84
2023/01/23 16:04:45;;;;;;;;;;;;;;;;;;5062470;28;19968;-83
2023/01/23 16:07:11;;;;;;;;;;;;;;;;;;5054628;28;19920;-85
2023/01/23 16:09:47;;;;;;;;;;;;;;;;;;;;;
2023/01/23 16:12:13;;;;;;;;;;;;;;;;;;5079418;28;19976;-83
2023/01/23 16:14:39;;;;;;;;;;;;;;;;;;5062405;28;20370;-81
2023/01/23 16:17:05;;;;;;;;;;;;;;;;;;5079720;28;20004;-85
2023/01/23 16:19:31;;;;;;;;;;;;;;;;;;5062110;28;20159;-81
2023/01/23 16:21:57;;;;;;;;;;;;;;;;;;5072140;28;19939;-84
2023/01/23 16:24:23;;;;;;;;;;;;;;;;;;5043395;28;19913;-83
2023/01/23 16:26:49;;;;;;;;;;;;;;;;;;5043032;28;20355;-84
2023/01/23 16:29:14;;;;;;;;;;;;;;;;;;5064885;28;19919;-83
2023/01/23 16:31:40;;;;;;;;;;;;;;;;;;5092497;28;20015;-85
2023/01/23 16:34:06;;;;;;;;;;;;;;;;;;5056967;28;19913;-84
2023/01/23 16:36:32;;;;;;;;;;;;;;;;;;5064677;28;19917;-85
2023/01/23 16:38:58;;;;;;;;;;;;;;;;;;5082912;28;19919;-85
2023/01/23 16:41:24;;;;;;;;;;;;;;;;;;5086764;28;19913;-84
2023/01/23 16:43:50;;;;;;;;;;;;;;;;;;5059001;28;19913;-84
2023/01/23 16:46:16;;;;;;;;;;;;;;;;;;5049362;28;20361;-85
2023/01/23 16:48:42;;;;;;;;;;;;;;;;;;5080118;28;19908;-85
2023/01/23 16:51:07;;;;;;;;;;;;;;;;;;5080207;28;19908;-84
2023/01/23 16:53:33;;;;;;;;;;;;;;;;;;5057725;28;19946;-84
2023/01/23 16:55:59;;;;;;;;;;;;;;;;;;5051741;28;20412;-83
2023/01/23 16:58:25;;;;;;;;;;;;;;;;;;5060477;28;19934;-84
2023/01/23 17:00:51;;;;;;;;;;;;;;;;;;5062304;28;20147;-83
2023/01/23 17:03:17;;;;;;;;;;;;;;;;;;5077848;28;19916;-85
2023/01/23 17:05:43;;;;;;;;;;;;;;;;;;5051086;28;20018;-85
2023/01/23 17:08:09;;;;;;;;;;;;;;;;;;5042105;28;19919;-84
2023/01/23 17:10:35;;;;;;;;;;;;;;;;;;5060065;28;20528;-85